createdAt,value
2022-11-30T00:00:02.587Z,87.23
2022-11-30T00:00:59.345Z,87.19
2022-11-30T00:01:46.001Z,87.45
2022-11-30T00:02:32.938Z,87.70
2022-11-30T00:03:19.886Z,87.58
2022-11-30T00:04:08.047Z,87.81
2022-11-30T00:04:54.712Z,87.86
2022-11-30T00:05:43.818Z,87.87
2022-11-30T00:06:30.607Z,87.97
2022-11-30T00:07:17.606Z,87.73
2022-11-30T00:08:04.292Z,87.15
2022-11-30T00:08:56.414Z,87.64
2022-11-30T00:09:43.146Z,87.34
2022-11-30T00:10:29.708Z,87.74
2022-11-30T00:11:21.046Z,87.62
2022-11-30T00:12:08.047Z,87.77
2022-11-30T00:12:54.809Z,87.93
2022-11-30T00:13:42.307Z,87.70
2022-11-30T00:14:28.823Z,87.67
2022-11-30T00:15:17.376Z,87.58
2022-11-30T00:16:04.567Z,87.70
2022-11-30T00:16:51.216Z,87.81
2022-11-30T00:17:37.881Z,87.74
2022-11-30T00:18:24.890Z,87.93
2022-11-30T00:19:11.571Z,87.65
2022-11-30T00:19:58.474Z,88.19
2022-11-30T00:20:45.675Z,87.79
2022-11-30T00:21:32.305Z,87.92
2022-11-30T00:22:18.758Z,87.66
2022-11-30T00:23:05.398Z,87.73
2022-11-30T00:23:52.362Z,87.76
2022-11-30T00:24:39.241Z,87.49
2022-11-30T00:25:28.836Z,87.61
2022-11-30T00:26:17.971Z,87.72
2022-11-30T00:27:04.537Z,87.88
2022-11-30T00:27:52.794Z,87.87
2022-11-30T00:28:40.653Z,87.78
2022-11-30T00:29:27.177Z,87.97
2022-11-30T00:30:14.709Z,88.06
2022-11-30T00:31:04.876Z,88.09
2022-11-30T00:31:51.574Z,88.01
2022-11-30T00:32:38.922Z,87.91
2022-11-30T00:33:25.414Z,88.08
2022-11-30T00:34:12.215Z,88.06
2022-11-30T00:34:58.785Z,88.14
2022-11-30T00:35:56.121Z,87.91
2022-11-30T00:36:42.780Z,87.97
2022-11-30T00:37:29.353Z,87.99
2022-11-30T00:38:16.191Z,88.16
2022-11-30T00:39:02.697Z,88.27
2022-11-30T00:39:50.772Z,88.50
2022-11-30T00:40:37.358Z,88.37
2022-11-30T00:41:24.011Z,88.36
2022-11-30T00:42:10.996Z,88.57
2022-11-30T00:42:57.825Z,88.50
2022-11-30T00:43:45.195Z,88.34
2022-11-30T00:44:31.886Z,88.56
2022-11-30T00:45:18.447Z,88.47
2022-11-30T00:46:06.086Z,88.63
2022-11-30T00:46:52.583Z,88.55
2022-11-30T00:47:39.234Z,88.48
2022-11-30T00:48:26.728Z,88.69
2022-11-30T00:49:13.340Z,88.47
2022-11-30T00:50:00.203Z,88.73
2022-11-30T00:50:49.351Z,88.95
2022-11-30T00:51:36.006Z,89.22
2022-11-30T00:52:22.803Z,89.14
2022-11-30T00:53:09.498Z,88.70
2022-11-30T00:53:56.245Z,88.88
2022-11-30T00:54:42.815Z,88.78
2022-11-30T00:55:31.627Z,88.94
2022-11-30T00:56:19.487Z,88.81
2022-11-30T00:57:06.235Z,88.86
2022-11-30T00:57:53.532Z,88.95
2022-11-30T00:58:41.167Z,88.79
2022-11-30T00:59:28.067Z,88.72
2022-11-30T01:00:15.405Z,88.23
2022-11-30T01:01:02.592Z,88.30
2022-11-30T01:01:49.325Z,88.65
2022-11-30T01:02:35.980Z,88.58
2022-11-30T01:03:22.549Z,88.41
2022-11-30T01:04:09.468Z,88.47
2022-11-30T01:04:56.105Z,88.54
2022-11-30T01:05:43.486Z,88.82
2022-11-30T01:06:30.310Z,88.98
2022-11-30T01:07:16.974Z,88.92
2022-11-30T01:08:06.583Z,88.80
2022-11-30T01:08:53.123Z,89.08
2022-11-30T01:09:39.581Z,89.07
2022-11-30T01:10:27.513Z,89.00
2022-11-30T01:11:21.599Z,88.97
2022-11-30T01:12:08.322Z,88.94
2022-11-30T01:12:55.329Z,88.59
2022-11-30T01:13:42.209Z,88.28
2022-11-30T01:14:28.863Z,88.34
2022-11-30T01:15:15.533Z,88.47
2022-11-30T01:16:02.347Z,88.56
2022-11-30T01:16:54.739Z,88.46
2022-11-30T01:17:42.833Z,88.80
2022-11-30T01:18:29.518Z,88.97
2022-11-30T01:19:16.247Z,88.66
2022-11-30T01:20:05.205Z,88.85
2022-11-30T01:20:51.794Z,88.92
2022-11-30T01:21:38.863Z,89.12
2022-11-30T01:22:25.439Z,89.03
2022-11-30T01:23:12.053Z,88.67
2022-11-30T01:23:59.090Z,88.68
2022-11-30T01:24:48.952Z,88.68
2022-11-30T01:25:35.803Z,88.86
2022-11-30T01:26:23.388Z,88.89
2022-11-30T01:27:09.866Z,89.09
2022-11-30T01:27:56.516Z,89.21
2022-11-30T01:28:44.281Z,89.09
2022-11-30T01:29:30.887Z,89.15
2022-11-30T01:30:18.958Z,89.07
2022-11-30T01:31:08.342Z,88.90
2022-11-30T01:31:54.969Z,88.97
2022-11-30T01:32:41.637Z,88.89
2022-11-30T01:33:28.271Z,89.25
2022-11-30T01:34:14.935Z,89.18
2022-11-30T01:35:01.785Z,89.26
2022-11-30T01:35:48.282Z,89.21
2022-11-30T01:36:36.309Z,89.17
2022-11-30T01:37:23.303Z,89.41
2022-11-30T01:38:10.251Z,89.04
2022-11-30T01:38:58.245Z,89.43
2022-11-30T01:39:44.983Z,89.22
2022-11-30T01:40:31.510Z,89.05
2022-11-30T01:41:24.254Z,89.22
2022-11-30T01:42:17.789Z,89.28
2022-11-30T01:43:11.633Z,89.37
2022-11-30T01:44:19.975Z,89.39
2022-11-30T01:45:12.598Z,89.19
2022-11-30T01:45:59.352Z,89.51
2022-11-30T01:46:57.459Z,89.35
2022-11-30T01:47:53.428Z,89.31
2022-11-30T01:48:40.204Z,89.32
2022-11-30T01:49:31.550Z,89.01
2022-11-30T01:50:32.009Z,89.12
2022-11-30T01:51:19.351Z,88.72
2022-11-30T01:52:08.170Z,88.96
2022-11-30T01:52:57.073Z,88.80
2022-11-30T01:53:43.675Z,89.21
2022-11-30T01:54:38.274Z,89.27
2022-11-30T01:55:49.242Z,89.19
2022-11-30T01:56:41.436Z,89.60
2022-11-30T01:57:35.756Z,89.72
2022-11-30T01:58:29.970Z,89.48
2022-11-30T01:59:22.057Z,89.58
2022-11-30T02:00:13.861Z,89.61
2022-11-30T02:01:01.969Z,89.99
2022-11-30T02:01:48.774Z,89.88
2022-11-30T02:02:57.460Z,89.85
2022-11-30T02:03:55.728Z,89.57
2022-11-30T02:04:43.339Z,89.54
2022-11-30T02:05:31.478Z,89.58
2022-11-30T02:06:18.973Z,89.62
2022-11-30T02:07:08.515Z,89.66
2022-11-30T02:07:55.967Z,89.93
2022-11-30T02:08:43.309Z,89.91
2022-11-30T02:09:39.526Z,90.05
2022-11-30T02:10:30.401Z,90.17
2022-11-30T02:11:17.541Z,90.10
2022-11-30T02:12:08.931Z,89.86
2022-11-30T02:13:08.334Z,89.88
2022-11-30T02:14:13.386Z,89.93
2022-11-30T02:15:09.329Z,89.89
2022-11-30T02:16:21.816Z,89.70
2022-11-30T02:17:19.857Z,89.81
2022-11-30T02:18:15.122Z,89.72
2022-11-30T02:19:07.764Z,89.75
2022-11-30T02:20:24.723Z,90.04
2022-11-30T02:21:22.215Z,89.73
2022-11-30T02:22:45.969Z,89.84
2022-11-30T02:23:42.981Z,89.84
2022-11-30T02:24:55.341Z,90.02
2022-11-30T02:26:08.691Z,89.94
2022-11-30T02:27:28.893Z,90.32
2022-11-30T02:28:34.030Z,89.87
2022-11-30T02:29:24.567Z,89.80
2022-11-30T02:30:16.445Z,90.07
2022-11-30T02:31:10.519Z,89.91
2022-11-30T02:32:25.987Z,90.00
2022-11-30T02:33:18.841Z,89.60
2022-11-30T02:34:10.937Z,89.90
2022-11-30T02:35:01.853Z,89.73
2022-11-30T02:35:55.320Z,90.13
2022-11-30T02:36:47.386Z,90.15
2022-11-30T02:37:37.405Z,90.14
2022-11-30T02:38:27.348Z,89.69
2022-11-30T02:39:14.294Z,89.66
2022-11-30T02:40:01.032Z,89.73
2022-11-30T02:40:48.130Z,89.63
2022-11-30T02:41:39.689Z,89.47
2022-11-30T02:42:26.483Z,89.68
2022-11-30T02:43:15.178Z,89.68
2022-11-30T02:44:02.225Z,90.00
2022-11-30T02:44:52.576Z,89.63
2022-11-30T02:45:50.363Z,89.71
2022-11-30T02:47:01.768Z,89.69
2022-11-30T02:48:07.865Z,89.80
2022-11-30T02:49:18.936Z,89.54
2022-11-30T02:50:25.568Z,90.00
2022-11-30T02:51:17.940Z,89.80
2022-11-30T02:52:08.212Z,89.77
2022-11-30T02:52:56.112Z,89.77
2022-11-30T02:53:46.862Z,89.77
2022-11-30T02:54:34.711Z,89.60
2022-11-30T02:55:21.483Z,89.85
2022-11-30T02:56:11.515Z,89.85
2022-11-30T02:56:58.433Z,89.60
2022-11-30T02:57:48.097Z,89.76
2022-11-30T02:58:35.071Z,89.29
2022-11-30T02:59:22.333Z,89.31
2022-11-30T03:00:13.940Z,89.74
2022-11-30T03:01:00.605Z,89.58
2022-11-30T03:01:47.319Z,89.60
2022-11-30T03:02:34.182Z,89.86
2022-11-30T03:03:21.069Z,89.55
2022-11-30T03:04:07.603Z,89.73
2022-11-30T03:04:54.156Z,89.75
2022-11-30T03:05:40.722Z,90.03
2022-11-30T03:06:27.310Z,89.81
2022-11-30T03:07:14.132Z,89.64
2022-11-30T03:08:00.956Z,89.86
2022-11-30T03:08:47.818Z,89.80
2022-11-30T03:09:34.281Z,90.01
2022-11-30T03:10:21.248Z,89.90
2022-11-30T03:11:07.985Z,89.85
2022-11-30T03:11:54.747Z,90.01
2022-11-30T03:12:41.300Z,90.17
2022-11-30T03:13:27.981Z,90.26
2022-11-30T03:14:14.629Z,90.18
2022-11-30T03:15:03.202Z,89.90
2022-11-30T03:15:50.201Z,90.26
2022-11-30T03:16:38.046Z,90.25
2022-11-30T03:17:24.809Z,90.03
2022-11-30T03:18:11.871Z,90.35
2022-11-30T03:18:58.970Z,90.19
2022-11-30T03:19:45.420Z,90.17
2022-11-30T03:20:32.617Z,90.17
2022-11-30T03:21:19.374Z,90.02
2022-11-30T03:22:06.467Z,89.98
2022-11-30T03:22:52.886Z,89.68
2022-11-30T03:23:40.814Z,90.02
2022-11-30T03:24:27.555Z,89.98
2022-11-30T03:25:14.152Z,89.79
2022-11-30T03:26:00.700Z,89.66
2022-11-30T03:26:47.188Z,89.76
2022-11-30T03:27:33.845Z,89.50
2022-11-30T03:28:20.342Z,89.80
2022-11-30T03:29:07.151Z,89.50
2022-11-30T03:29:53.758Z,89.52
2022-11-30T03:30:40.300Z,89.67
2022-11-30T03:31:26.962Z,89.49
2022-11-30T03:32:13.686Z,89.53
2022-11-30T03:33:00.349Z,89.91
2022-11-30T03:33:47.205Z,89.77
2022-11-30T03:34:33.796Z,89.59
2022-11-30T03:35:20.366Z,89.70
2022-11-30T03:36:09.674Z,89.62
2022-11-30T03:36:56.338Z,89.63
2022-11-30T03:37:43.041Z,89.84
2022-11-30T03:38:30.444Z,89.97
2022-11-30T03:39:16.995Z,89.91
2022-11-30T03:40:06.839Z,89.84
2022-11-30T03:41:04.332Z,89.89
2022-11-30T03:41:51.764Z,89.66
2022-11-30T03:42:38.512Z,89.96
2022-11-30T03:43:25.220Z,89.70
2022-11-30T03:44:11.951Z,89.74
2022-11-30T03:44:58.744Z,89.72
2022-11-30T03:45:46.539Z,90.08
2022-11-30T03:46:36.079Z,90.07
2022-11-30T03:47:23.286Z,90.03
2022-11-30T03:48:09.783Z,89.96
2022-11-30T03:48:56.429Z,90.25
2022-11-30T03:49:42.910Z,90.02
2022-11-30T03:50:30.101Z,90.18
2022-11-30T03:51:16.635Z,89.62
2022-11-30T03:52:03.217Z,89.69
2022-11-30T03:52:49.998Z,89.67
2022-11-30T03:53:37.209Z,89.75
2022-11-30T03:54:23.880Z,89.58
2022-11-30T03:55:11.075Z,89.58
2022-11-30T03:56:00.803Z,89.71
2022-11-30T03:56:47.547Z,89.66
2022-11-30T03:57:34.796Z,89.69
2022-11-30T03:58:23.171Z,89.98
2022-11-30T03:59:09.860Z,89.88
2022-11-30T03:59:56.363Z,89.83
2022-11-30T04:00:42.876Z,89.66
2022-11-30T04:01:29.404Z,89.91
2022-11-30T04:02:16.054Z,90.08
2022-11-30T04:03:02.896Z,89.89
2022-11-30T04:03:51.612Z,89.95
2022-11-30T04:04:38.045Z,89.92
2022-11-30T04:05:24.578Z,90.25
2022-11-30T04:06:13.022Z,90.02
2022-11-30T04:06:59.786Z,90.09
2022-11-30T04:07:46.365Z,90.30
2022-11-30T04:08:33.786Z,90.08
2022-11-30T04:09:20.349Z,90.18
2022-11-30T04:10:08.759Z,90.51
2022-11-30T04:10:57.513Z,90.29
2022-11-30T04:11:46.738Z,90.46
2022-11-30T04:12:33.440Z,90.53
2022-11-30T04:13:21.212Z,90.44
2022-11-30T04:14:07.831Z,90.44
2022-11-30T04:14:54.333Z,90.39
2022-11-30T04:15:40.975Z,90.44
2022-11-30T04:16:27.849Z,90.24
2022-11-30T04:17:14.551Z,90.56
2022-11-30T04:18:01.902Z,90.34
2022-11-30T04:18:48.589Z,90.34
2022-11-30T04:19:36.183Z,90.34
2022-11-30T04:20:22.719Z,90.17
2022-11-30T04:21:10.378Z,90.28
2022-11-30T04:21:56.853Z,90.08
2022-11-30T04:22:43.481Z,90.53
2022-11-30T04:23:33.246Z,90.34
2022-11-30T04:24:19.997Z,90.44
2022-11-30T04:25:07.146Z,90.87
2022-11-30T04:25:53.619Z,90.65
2022-11-30T04:26:40.318Z,90.58
2022-11-30T04:27:28.774Z,90.65
2022-11-30T04:28:16.771Z,90.78
2022-11-30T04:29:04.782Z,90.86
2022-11-30T04:29:51.532Z,90.72
2022-11-30T04:30:38.067Z,90.86
2022-11-30T04:31:24.692Z,90.78
2022-11-30T04:32:11.412Z,90.78
2022-11-30T04:32:58.456Z,90.39
2022-11-30T04:33:45.040Z,90.65
2022-11-30T04:34:33.850Z,90.43
2022-11-30T04:35:21.125Z,90.46
2022-11-30T04:36:17.738Z,90.73
2022-11-30T04:37:04.247Z,90.97
2022-11-30T04:37:50.705Z,90.91
2022-11-30T04:38:37.675Z,91.11
2022-11-30T04:39:24.166Z,90.89
2022-11-30T04:40:11.308Z,91.00
2022-11-30T04:40:58.009Z,90.65
2022-11-30T04:41:45.401Z,90.84
2022-11-30T04:42:31.888Z,90.85
2022-11-30T04:43:18.543Z,90.78
2022-11-30T04:44:05.005Z,90.73
2022-11-30T04:44:51.671Z,91.06
2022-11-30T04:45:42.782Z,91.04
2022-11-30T04:46:29.609Z,90.61
2022-11-30T04:47:16.428Z,90.98
2022-11-30T04:48:03.971Z,90.99
2022-11-30T04:48:50.599Z,90.83
2022-11-30T04:49:37.364Z,90.72
2022-11-30T04:50:23.979Z,90.66
2022-11-30T04:51:10.623Z,90.54
2022-11-30T04:51:57.292Z,90.86
2022-11-30T04:52:44.040Z,90.92
2022-11-30T04:53:30.706Z,90.98
2022-11-30T04:54:17.352Z,90.87
2022-11-30T04:55:04.379Z,90.88
2022-11-30T04:55:50.796Z,90.84
2022-11-30T04:56:37.287Z,90.89
2022-11-30T04:57:27.721Z,90.98
2022-11-30T04:58:16.716Z,90.99
2022-11-30T04:59:03.435Z,90.68
2022-11-30T04:59:50.059Z,90.47
2022-11-30T05:00:37.464Z,90.37
2022-11-30T05:01:24.216Z,90.62
2022-11-30T05:02:10.888Z,90.42
2022-11-30T05:02:57.527Z,90.47
2022-11-30T05:03:44.097Z,90.25
2022-11-30T05:04:32.858Z,90.38
2022-11-30T05:05:19.473Z,90.54
2022-11-30T05:06:06.327Z,90.35
2022-11-30T05:07:40.518Z,90.59
2022-11-30T05:08:27.426Z,90.35
2022-11-30T05:09:13.922Z,90.24
2022-11-30T05:10:00.611Z,90.35
2022-11-30T05:10:54.946Z,90.25
2022-11-30T05:11:43.626Z,90.47
2022-11-30T05:12:30.259Z,90.52
2022-11-30T05:13:16.856Z,90.29
2022-11-30T05:14:03.530Z,89.89
2022-11-30T05:14:50.152Z,89.63
2022-11-30T05:15:36.676Z,89.81
2022-11-30T05:16:23.254Z,89.86
2022-11-30T05:17:09.835Z,89.49
2022-11-30T05:17:59.302Z,89.51
2022-11-30T05:18:45.976Z,89.89
2022-11-30T05:19:33.616Z,89.90
2022-11-30T05:20:23.038Z,89.87
2022-11-30T05:21:11.084Z,89.81
2022-11-30T05:21:59.227Z,89.67
2022-11-30T05:22:45.822Z,89.52
2022-11-30T05:23:32.590Z,89.67
2022-11-30T05:24:19.090Z,89.67
2022-11-30T05:25:05.973Z,89.59
2022-11-30T05:25:53.943Z,89.37
2022-11-30T05:26:40.484Z,89.44
2022-11-30T05:27:29.775Z,89.23
2022-11-30T05:28:16.710Z,89.10
2022-11-30T05:29:06.056Z,89.01
2022-11-30T05:29:53.064Z,88.90
2022-11-30T05:30:40.908Z,88.84
2022-11-30T05:31:27.665Z,88.51
2022-11-30T05:32:14.311Z,88.58
2022-11-30T05:33:01.312Z,88.38
2022-11-30T05:33:52.749Z,88.60
2022-11-30T05:34:50.038Z,88.03
2022-11-30T05:35:38.572Z,88.07
2022-11-30T05:36:25.632Z,88.32
2022-11-30T05:37:12.367Z,88.34
2022-11-30T05:37:59.081Z,88.19
2022-11-30T05:38:46.231Z,88.68
2022-11-30T05:39:32.920Z,88.58
2022-11-30T05:40:19.790Z,88.63
2022-11-30T05:41:06.381Z,88.68
2022-11-30T05:41:53.031Z,88.53
2022-11-30T05:42:39.888Z,88.74
2022-11-30T05:43:26.642Z,88.79
2022-11-30T05:44:13.287Z,89.04
2022-11-30T05:45:00.980Z,88.61
2022-11-30T05:45:47.784Z,88.90
2022-11-30T05:46:38.342Z,89.23
2022-11-30T05:47:27.353Z,89.20
2022-11-30T05:48:13.957Z,89.04
2022-11-30T05:49:00.622Z,89.44
2022-11-30T05:49:47.292Z,89.47
2022-11-30T05:50:33.837Z,89.29
2022-11-30T05:51:21.503Z,89.46
2022-11-30T05:52:08.003Z,89.50
2022-11-30T05:53:00.715Z,89.43
2022-11-30T05:53:48.046Z,89.66
2022-11-30T05:54:34.911Z,89.75
2022-11-30T05:55:27.119Z,89.68
2022-11-30T05:56:17.030Z,89.96
2022-11-30T05:57:05.360Z,89.77
2022-11-30T05:57:52.781Z,89.70
2022-11-30T05:58:39.861Z,89.81
2022-11-30T05:59:26.396Z,89.87
2022-11-30T06:00:15.745Z,89.91
2022-11-30T06:01:02.888Z,90.02
2022-11-30T06:01:52.040Z,89.83
2022-11-30T06:02:38.841Z,90.08
2022-11-30T06:03:28.270Z,90.09
2022-11-30T06:04:14.973Z,90.22
2022-11-30T06:05:04.403Z,90.09
2022-11-30T06:05:54.839Z,90.11
2022-11-30T06:06:41.547Z,89.63
2022-11-30T06:07:28.077Z,89.51
2022-11-30T06:08:14.622Z,89.55
2022-11-30T06:09:01.527Z,89.21
2022-11-30T06:09:48.211Z,89.39
2022-11-30T06:10:35.513Z,89.22
2022-11-30T06:11:22.259Z,89.25
2022-11-30T06:12:09.006Z,89.50
2022-11-30T06:12:55.517Z,89.57
2022-11-30T06:13:42.816Z,89.55
2022-11-30T06:14:29.377Z,89.34
2022-11-30T06:15:16.036Z,89.50
2022-11-30T06:16:04.949Z,89.58
2022-11-30T06:16:52.030Z,88.99
2022-11-30T06:17:38.747Z,88.25
2022-11-30T06:18:25.396Z,88.32
2022-11-30T06:19:12.053Z,88.31
2022-11-30T06:19:58.723Z,87.52
2022-11-30T06:20:45.355Z,87.73
2022-11-30T06:21:32.173Z,87.65
2022-11-30T06:22:18.654Z,87.52
2022-11-30T06:23:05.616Z,87.67
2022-11-30T06:23:52.985Z,87.62
2022-11-30T06:24:42.003Z,87.37
2022-11-30T06:25:29.018Z,86.83
2022-11-30T06:26:15.491Z,86.84
2022-11-30T06:27:01.999Z,86.05
2022-11-30T06:27:48.680Z,86.12
2022-11-30T06:28:35.628Z,86.18
2022-11-30T06:29:22.381Z,86.48
2022-11-30T06:30:10.224Z,86.73
2022-11-30T06:31:05.628Z,86.44
2022-11-30T06:31:53.323Z,86.14
2022-11-30T06:32:39.914Z,85.98
2022-11-30T06:33:27.347Z,85.95
2022-11-30T06:34:13.963Z,85.71
2022-11-30T06:35:00.602Z,85.89
2022-11-30T06:35:47.454Z,85.94
2022-11-30T06:36:36.316Z,85.70
2022-11-30T06:37:23.275Z,85.94
2022-11-30T06:38:09.778Z,84.97
2022-11-30T06:38:56.339Z,84.97
2022-11-30T06:40:05.236Z,85.15
2022-11-30T06:40:50.137Z,85.32
2022-11-30T06:41:36.827Z,85.43
2022-11-30T06:42:23.487Z,85.26
2022-11-30T06:43:10.274Z,85.00
2022-11-30T06:43:57.281Z,84.98
2022-11-30T06:44:44.067Z,85.57
2022-11-30T06:45:31.680Z,85.28
2022-11-30T06:46:18.373Z,85.36
2022-11-30T06:47:05.113Z,85.61
2022-11-30T06:47:55.748Z,85.59
2022-11-30T06:48:42.491Z,85.83
2022-11-30T06:49:29.156Z,85.81
2022-11-30T06:50:15.851Z,85.98
2022-11-30T06:51:05.621Z,86.45
2022-11-30T06:51:52.308Z,86.41
2022-11-30T06:52:39.060Z,86.13
2022-11-30T06:53:26.002Z,85.23
2022-11-30T06:54:12.566Z,85.13
2022-11-30T06:54:59.507Z,84.99
2022-11-30T06:55:46.207Z,85.18
2022-11-30T06:56:32.745Z,84.95
2022-11-30T06:57:19.256Z,84.91
2022-11-30T06:58:10.369Z,85.15
2022-11-30T06:58:57.470Z,85.49
2022-11-30T06:59:44.289Z,85.13
2022-11-30T07:00:30.954Z,85.14
2022-11-30T07:01:17.590Z,85.31
2022-11-30T07:02:08.863Z,85.31
2022-11-30T07:02:57.571Z,86.09
2022-11-30T07:03:44.185Z,86.38
2022-11-30T07:04:30.679Z,86.17
2022-11-30T07:05:17.146Z,86.26
2022-11-30T07:06:12.682Z,86.39
2022-11-30T07:06:59.398Z,86.32
2022-11-30T07:07:45.905Z,86.34
2022-11-30T07:08:32.398Z,85.96
2022-11-30T07:09:18.844Z,85.39
2022-11-30T07:10:05.783Z,85.55
2022-11-30T07:10:52.990Z,85.65
2022-11-30T07:11:39.749Z,85.82
2022-11-30T07:12:26.810Z,85.74
2022-11-30T07:13:17.105Z,85.33
2022-11-30T07:14:03.750Z,85.15
2022-11-30T07:14:55.440Z,85.03
2022-11-30T07:15:43.297Z,85.39
2022-11-30T07:16:30.078Z,84.93
2022-11-30T07:17:16.661Z,85.19
2022-11-30T07:18:03.128Z,85.31
2022-11-30T07:18:49.758Z,85.57
2022-11-30T07:19:36.175Z,85.45
2022-11-30T07:20:22.804Z,85.82
2022-11-30T07:21:10.574Z,85.63
2022-11-30T07:21:57.351Z,86.04
2022-11-30T07:22:43.948Z,86.10
2022-11-30T07:23:54.284Z,86.51
2022-11-30T07:25:01.148Z,86.32
2022-11-30T07:26:07.585Z,86.13
2022-11-30T07:26:54.356Z,86.21
2022-11-30T07:27:40.771Z,86.58
2022-11-30T07:28:27.181Z,86.76
2022-11-30T07:29:13.698Z,86.71
2022-11-30T07:30:00.428Z,86.46
2022-11-30T07:30:46.979Z,86.40
2022-11-30T07:31:34.886Z,86.27
2022-11-30T07:32:24.468Z,86.40
2022-11-30T07:33:11.247Z,86.63
2022-11-30T07:34:02.879Z,86.48
2022-11-30T07:34:49.876Z,86.44
2022-11-30T07:35:39.269Z,86.60
2022-11-30T07:36:27.636Z,86.53
2022-11-30T07:37:14.322Z,86.34
2022-11-30T07:38:05.374Z,86.24
2022-11-30T07:38:54.838Z,86.38
2022-11-30T07:39:43.927Z,86.37
2022-11-30T07:40:31.286Z,86.14
2022-11-30T07:41:18.039Z,86.07
2022-11-30T07:42:05.274Z,86.40
2022-11-30T07:42:58.740Z,86.09
2022-11-30T07:43:45.303Z,86.11
2022-11-30T07:44:32.845Z,86.36
2022-11-30T07:45:19.359Z,86.02
2022-11-30T07:46:14.050Z,86.34
2022-11-30T07:47:01.118Z,85.83
2022-11-30T07:47:48.009Z,86.13
2022-11-30T07:48:35.322Z,86.03
2022-11-30T07:49:22.083Z,85.71
2022-11-30T07:50:09.299Z,85.87
2022-11-30T07:51:05.687Z,86.13
2022-11-30T07:51:52.377Z,86.07
2022-11-30T07:52:39.372Z,86.04
2022-11-30T07:53:25.973Z,86.00
2022-11-30T07:54:13.766Z,86.54
2022-11-30T07:55:00.286Z,86.08
2022-11-30T07:55:46.812Z,86.21
2022-11-30T07:56:33.393Z,86.00
2022-11-30T07:57:20.143Z,86.12
2022-11-30T07:58:14.208Z,85.82
2022-11-30T07:59:03.737Z,85.82
2022-11-30T07:59:50.468Z,85.91
2022-11-30T08:00:37.964Z,85.40
2022-11-30T08:01:30.129Z,85.91
2022-11-30T08:02:16.966Z,85.63
2022-11-30T08:03:04.299Z,85.89
2022-11-30T08:03:52.352Z,86.24
2022-11-30T08:04:39.178Z,86.42
2022-11-30T08:05:28.245Z,85.93
2022-11-30T08:06:19.784Z,85.87
2022-11-30T08:07:06.458Z,85.68
2022-11-30T08:07:56.898Z,85.49
2022-11-30T08:08:45.408Z,85.36
2022-11-30T08:09:31.983Z,85.65
2022-11-30T08:10:21.040Z,85.60
2022-11-30T08:11:10.799Z,85.72
2022-11-30T08:11:57.459Z,85.86
2022-11-30T08:12:44.165Z,86.12
2022-11-30T08:13:31.410Z,85.84
2022-11-30T08:14:18.267Z,85.94
2022-11-30T08:15:21.770Z,85.82
2022-11-30T08:16:13.789Z,85.99
2022-11-30T08:17:00.692Z,85.68
2022-11-30T08:17:50.297Z,85.86
2022-11-30T08:18:37.413Z,85.77
2022-11-30T08:19:24.267Z,85.96
2022-11-30T08:20:11.876Z,85.95
2022-11-30T08:21:01.608Z,85.99
2022-11-30T08:21:48.178Z,86.00
2022-11-30T08:22:37.033Z,86.21
2022-11-30T08:23:23.709Z,85.80
2022-11-30T08:24:13.577Z,85.85
2022-11-30T08:25:03.410Z,85.56
2022-11-30T08:25:53.092Z,85.55
2022-11-30T08:26:39.922Z,85.83
2022-11-30T08:27:26.866Z,85.56
2022-11-30T08:28:13.386Z,85.85
2022-11-30T08:29:01.505Z,85.75
2022-11-30T08:29:48.037Z,85.32
2022-11-30T08:30:36.999Z,85.05
2022-11-30T08:31:32.395Z,85.49
2022-11-30T08:32:19.088Z,85.88
2022-11-30T08:33:05.576Z,85.51
2022-11-30T08:34:04.198Z,84.93
2022-11-30T08:34:51.089Z,85.03
2022-11-30T08:35:37.803Z,85.46
2022-11-30T08:36:29.394Z,85.41
2022-11-30T08:37:22.412Z,85.49
2022-11-30T08:38:13.011Z,85.52
2022-11-30T08:39:02.562Z,85.88
2022-11-30T08:39:49.465Z,85.38
2022-11-30T08:40:36.357Z,85.47
2022-11-30T08:41:23.865Z,85.66
2022-11-30T08:42:13.248Z,85.48
2022-11-30T08:43:01.041Z,85.21
2022-11-30T08:43:49.607Z,85.11
2022-11-30T08:44:36.362Z,84.77
2022-11-30T08:45:23.247Z,85.15
2022-11-30T08:46:42.561Z,85.00
2022-11-30T08:47:20.002Z,85.02
2022-11-30T08:48:07.208Z,85.11
2022-11-30T08:49:12.557Z,85.54
2022-11-30T08:50:03.910Z,85.80
2022-11-30T08:50:51.076Z,85.79
2022-11-30T08:52:00.851Z,85.76
2022-11-30T08:52:44.443Z,85.07
2022-11-30T08:53:32.365Z,85.09
2022-11-30T08:54:18.978Z,85.15
2022-11-30T08:55:06.362Z,84.65
2022-11-30T08:56:01.360Z,84.96
2022-11-30T08:56:48.052Z,85.30
2022-11-30T08:57:37.770Z,85.31
2022-11-30T08:58:27.544Z,85.32
2022-11-30T08:59:14.268Z,85.39
2022-11-30T09:00:01.051Z,85.21
2022-11-30T09:00:47.566Z,85.01
2022-11-30T09:01:34.060Z,85.15
2022-11-30T09:02:20.641Z,84.62
2022-11-30T09:03:07.184Z,84.74
2022-11-30T09:03:55.775Z,84.89
2022-11-30T09:04:42.413Z,85.11
2022-11-30T09:05:29.055Z,85.10
2022-11-30T09:06:18.689Z,84.85
2022-11-30T09:07:05.526Z,84.80
2022-11-30T09:07:52.361Z,85.02
2022-11-30T09:08:43.624Z,85.16
2022-11-30T09:09:33.294Z,85.04
2022-11-30T09:10:20.038Z,85.38
2022-11-30T09:11:15.973Z,85.44
2022-11-30T09:12:02.774Z,85.41
2022-11-30T09:12:49.554Z,85.21
2022-11-30T09:13:40.261Z,85.35
2022-11-30T09:14:27.038Z,85.33
2022-11-30T09:15:13.726Z,85.45
2022-11-30T09:16:00.294Z,85.16
2022-11-30T09:16:47.118Z,85.32
2022-11-30T09:17:33.755Z,85.12
2022-11-30T09:18:23.003Z,84.85
2022-11-30T09:19:10.422Z,85.17
2022-11-30T09:19:57.111Z,85.25
2022-11-30T09:20:43.681Z,85.09
2022-11-30T09:21:30.410Z,85.17
2022-11-30T09:22:18.199Z,84.82
2022-11-30T09:23:04.845Z,84.88
2022-11-30T09:23:53.233Z,84.84
2022-11-30T09:24:40.219Z,85.16
2022-11-30T09:25:30.120Z,85.08
2022-11-30T09:26:19.807Z,85.06
2022-11-30T09:27:06.397Z,84.83
2022-11-30T09:27:53.089Z,84.89
2022-11-30T09:28:40.071Z,85.09
2022-11-30T09:29:26.734Z,84.85
2022-11-30T09:30:14.023Z,84.51
2022-11-30T09:31:21.797Z,84.60
2022-11-30T09:32:08.615Z,84.46
2022-11-30T09:32:55.170Z,84.44
2022-11-30T09:33:42.392Z,84.77
2022-11-30T09:34:29.168Z,84.96
2022-11-30T09:35:15.764Z,85.01
2022-11-30T09:36:05.829Z,85.06
2022-11-30T09:36:52.672Z,85.10
2022-11-30T09:37:40.257Z,84.95
2022-11-30T09:38:28.472Z,84.76
2022-11-30T09:39:15.150Z,85.05
2022-11-30T09:40:01.843Z,84.16
2022-11-30T09:40:55.771Z,84.41
2022-11-30T09:41:54.055Z,84.24
2022-11-30T09:43:02.539Z,83.93
2022-11-30T09:44:10.587Z,84.31
2022-11-30T09:45:08.120Z,84.79
2022-11-30T09:46:03.505Z,84.75
2022-11-30T09:47:13.296Z,84.70
2022-11-30T09:48:09.008Z,84.78
2022-11-30T09:49:04.306Z,84.76
2022-11-30T09:49:51.318Z,84.63
2022-11-30T09:50:44.146Z,84.87
2022-11-30T09:51:47.839Z,84.31
2022-11-30T09:52:43.809Z,84.46
2022-11-30T09:53:54.948Z,84.51
2022-11-30T09:54:45.538Z,84.88
2022-11-30T09:55:44.445Z,84.62
2022-11-30T09:56:37.712Z,84.83
2022-11-30T09:57:29.040Z,84.97
2022-11-30T09:59:05.040Z,84.84
2022-11-30T09:59:59.328Z,84.82
2022-11-30T10:00:46.020Z,84.46
2022-11-30T10:01:37.698Z,84.30
2022-11-30T10:02:30.472Z,84.46
2022-11-30T10:03:21.950Z,83.86
2022-11-30T10:04:25.951Z,84.50
2022-11-30T10:05:41.071Z,84.76
2022-11-30T10:06:50.627Z,84.36
2022-11-30T10:07:59.106Z,84.32
2022-11-30T10:09:04.104Z,84.71
2022-11-30T10:11:37.668Z,84.47
2022-11-30T10:12:51.553Z,84.52
2022-11-30T10:14:05.139Z,84.57
2022-11-30T10:15:15.146Z,84.74
2022-11-30T10:16:24.263Z,84.36
2022-11-30T10:17:26.009Z,84.72
2022-11-30T10:18:26.251Z,84.65
2022-11-30T10:19:54.911Z,84.60
2022-11-30T10:21:02.796Z,84.89
2022-11-30T10:22:21.728Z,84.77
2022-11-30T10:23:15.058Z,84.70
2022-11-30T10:24:26.775Z,84.11
2022-11-30T10:25:25.415Z,84.46
2022-11-30T10:26:21.553Z,84.56
2022-11-30T10:27:18.344Z,85.03
2022-11-30T10:28:44.976Z,85.02
2022-11-30T10:29:35.709Z,85.17
2022-11-30T10:30:26.148Z,85.22
2022-11-30T10:31:18.181Z,85.26
2022-11-30T10:32:20.626Z,84.38
2022-11-30T10:33:19.369Z,84.87
2022-11-30T10:34:21.806Z,84.44
2022-11-30T10:35:28.684Z,84.49
2022-11-30T10:36:42.139Z,85.02
2022-11-30T10:37:36.830Z,85.06
2022-11-30T10:38:46.949Z,85.37
2022-11-30T10:39:58.417Z,85.10
2022-11-30T10:41:03.880Z,85.12
2022-11-30T10:42:12.614Z,84.83
2022-11-30T10:43:09.938Z,84.79